sensor_id;sensor_type;location;lat;lon;timestamp;P1;durP1;ratioP1;P2;durP2;ratioP2
12784;SDS011;6456;42.680;23.260;2022-08-21T00:01:32;8.13;;;6.60;;
12784;SDS011;6456;42.680;23.260;2022-08-21T00:04:03;8.17;;;5.70;;
12784;SDS011;6456;42.680;23.260;2022-08-21T00:06:32;7.53;;;6.20;;
12784;SDS011;6456;42.680;23.260;2022-08-21T00:08:59;7.23;;;6.13;;
12784;SDS011;6456;42.680;23.260;2022-08-21T00:11:27;8.77;;;5.87;;
12784;SDS011;6456;42.680;23.260;2022-08-21T00:13:54;9.77;;;6.50;;
12784;SDS011;6456;42.680;23.260;2022-08-21T00:19:11;8.80;;;6.07;;
12784;SDS011;6456;42.680;23.260;2022-08-21T00:21:38;9.57;;;6.00;;
12784;SDS011;6456;42.680;23.260;2022-08-21T00:24:05;8.63;;;6.27;;
12784;SDS011;6456;42.680;23.260;2022-08-21T00:26:33;10.00;;;6.10;;
12784;SDS011;6456;42.680;23.260;2022-08-21T00:29:00;9.97;;;6.13;;
12784;SDS011;6456;42.680;23.260;2022-08-21T00:31:27;11.60;;;5.97;;
12784;SDS011;6456;42.680;23.260;2022-08-21T00:33:55;8.00;;;6.37;;
12784;SDS011;6456;42.680;23.260;2022-08-21T00:36:22;8.53;;;6.70;;
12784;SDS011;6456;42.680;23.260;2022-08-21T00:38:49;10.90;;;6.10;;
12784;SDS011;6456;42.680;23.260;2022-08-21T00:41:16;6.67;;;5.80;;
12784;SDS011;6456;42.680;23.260;2022-08-21T00:43:44;8.13;;;6.10;;
12784;SDS011;6456;42.680;23.260;2022-08-21T00:46:11;9.73;;;5.73;;
12784;SDS011;6456;42.680;23.260;2022-08-21T00:48:38;8.47;;;5.53;;
12784;SDS011;6456;42.680;23.260;2022-08-21T00:51:07;6.77;;;6.07;;
12784;SDS011;6456;42.680;23.260;2022-08-21T00:53:39;9.40;;;6.37;;
12784;SDS011;6456;42.680;23.260;2022-08-21T00:56:10;7.67;;;6.10;;
12784;SDS011;6456;42.680;23.260;2022-08-21T00:58:38;6.47;;;5.80;;
12784;SDS011;6456;42.680;23.260;2022-08-21T01:01:08;8.57;;;5.50;;
12784;SDS011;6456;42.680;23.260;2022-08-21T01:03:35;6.70;;;5.83;;
12784;SDS011;6456;42.680;23.260;2022-08-21T01:06:03;8.93;;;6.80;;
12784;SDS011;6456;42.680;23.260;2022-08-21T01:08:32;7.37;;;6.10;;
12784;SDS011;6456;42.680;23.260;2022-08-21T01:10:59;7.60;;;6.20;;
12784;SDS011;6456;42.680;23.260;2022-08-21T01:13:28;8.10;;;6.17;;
12784;SDS011;6456;42.680;23.260;2022-08-21T01:15:58;6.63;;;5.67;;
12784;SDS011;6456;42.680;23.260;2022-08-21T01:18:27;8.37;;;5.93;;
12784;SDS011;6456;42.680;23.260;2022-08-21T01:23:44;8.37;;;5.40;;
12784;SDS011;6456;42.680;23.260;2022-08-21T01:26:12;9.47;;;5.50;;
12784;SDS011;6456;42.680;23.260;2022-08-21T01:28:42;7.00;;;5.27;;
12784;SDS011;6456;42.680;23.260;2022-08-21T01:31:14;7.23;;;5.53;;
12784;SDS011;6456;42.680;23.260;2022-08-21T01:33:44;11.83;;;5.70;;
12784;SDS011;6456;42.680;23.260;2022-08-21T01:36:11;8.83;;;5.50;;
12784;SDS011;6456;42.680;23.260;2022-08-21T01:38:39;6.30;;;5.70;;
12784;SDS011;6456;42.680;23.260;2022-08-21T01:41:06;6.10;;;5.10;;
12784;SDS011;6456;42.680;23.260;2022-08-21T01:43:33;7.20;;;5.67;;
12784;SDS011;6456;42.680;23.260;2022-08-21T01:46:01;7.73;;;6.10;;
12784;SDS011;6456;42.680;23.260;2022-08-21T01:48:31;11.67;;;5.63;;
12784;SDS011;6456;42.680;23.260;2022-08-21T01:50:59;8.27;;;6.10;;
12784;SDS011;6456;42.680;23.260;2022-08-21T01:53:26;7.67;;;6.23;;
12784;SDS011;6456;42.680;23.260;2022-08-21T01:55:54;7.23;;;5.47;;
12784;SDS011;6456;42.680;23.260;2022-08-21T01:58:22;5.83;;;5.17;;
12784;SDS011;6456;42.680;23.260;2022-08-21T02:00:50;7.00;;;5.20;;
12784;SDS011;6456;42.680;23.260;2022-08-21T02:03:18;7.80;;;6.47;;
12784;SDS011;6456;42.680;23.260;2022-08-21T02:05:45;8.83;;;7.73;;
12784;SDS011;6456;42.680;23.260;2022-08-21T02:08:12;8.97;;;6.93;;
12784;SDS011;6456;42.680;23.260;2022-08-21T02:10:41;9.20;;;7.20;;
12784;SDS011;6456;42.680;23.260;2022-08-21T02:13:09;9.57;;;6.70;;
12784;SDS011;6456;42.680;23.260;2022-08-21T02:15:38;9.73;;;6.80;;
12784;SDS011;6456;42.680;23.260;2022-08-21T02:18:05;9.03;;;7.93;;
12784;SDS011;6456;42.680;23.260;2022-08-21T02:20:34;9.17;;;7.77;;
12784;SDS011;6456;42.680;23.260;2022-08-21T02:23:03;10.07;;;8.27;;
12784;SDS011;6456;42.680;23.260;2022-08-21T02:25:33;12.73;;;8.40;;
12784;SDS011;6456;42.680;23.260;2022-08-21T02:28:02;12.87;;;8.90;;
12784;SDS011;6456;42.680;23.260;2022-08-21T02:30:34;11.73;;;9.20;;
12784;SDS011;6456;42.680;23.260;2022-08-21T02:33:03;12.43;;;8.87;;
12784;SDS011;6456;42.680;23.260;2022-08-21T02:35:33;11.83;;;8.93;;
12784;SDS011;6456;42.680;23.260;2022-08-21T02:38:01;10.80;;;7.93;;
12784;SDS011;6456;42.680;23.260;2022-08-21T02:40:31;9.43;;;8.27;;
12784;SDS011;6456;42.680;23.260;2022-08-21T02:43:03;11.77;;;9.63;;
12784;SDS011;6456;42.680;23.260;2022-08-21T02:45:33;10.93;;;9.60;;
12784;SDS011;6456;42.680;23.260;2022-08-21T02:48:03;13.90;;;9.53;;
12784;SDS011;6456;42.680;23.260;2022-08-21T02:50:32;11.00;;;8.40;;
12784;SDS011;6456;42.680;23.260;2022-08-21T02:53:01;10.63;;;8.47;;
12784;SDS011;6456;42.680;23.260;2022-08-21T02:55:30;11.00;;;8.57;;
12784;SDS011;6456;42.680;23.260;2022-08-21T02:58:01;12.07;;;8.63;;
12784;SDS011;6456;42.680;23.260;2022-08-21T03:00:29;11.10;;;9.20;;
12784;SDS011;6456;42.680;23.260;2022-08-21T03:02:59;10.70;;;9.20;;
12784;SDS011;6456;42.680;23.260;2022-08-21T03:05:27;12.83;;;9.40;;
12784;SDS011;6456;42.680;23.260;2022-08-21T03:07:56;14.23;;;9.43;;
12784;SDS011;6456;42.680;23.260;2022-08-21T03:10:27;14.77;;;9.00;;
12784;SDS011;6456;42.680;23.260;2022-08-21T03:12:56;11.83;;;8.70;;
12784;SDS011;6456;42.680;23.260;2022-08-21T03:15:23;11.53;;;9.00;;
12784;SDS011;6456;42.680;23.260;2022-08-21T03:17:50;9.87;;;8.83;;
12784;SDS011;6456;42.680;23.260;2022-08-21T03:20:22;13.40;;;10.67;;
12784;SDS011;6456;42.680;23.260;2022-08-21T03:22:51;11.07;;;9.60;;
12784;SDS011;6456;42.680;23.260;2022-08-21T03:25:18;13.47;;;8.80;;
12784;SDS011;6456;42.680;23.260;2022-08-21T03:27:46;10.20;;;8.50;;
12784;SDS011;6456;42.680;23.260;2022-08-21T03:30:14;10.17;;;7.97;;
12784;SDS011;6456;42.680;23.260;2022-08-21T03:32:42;9.33;;;7.53;;
12784;SDS011;6456;42.680;23.260;2022-08-21T03:35:09;8.03;;;7.23;;
12784;SDS011;6456;42.680;23.260;2022-08-21T03:37:37;9.57;;;7.53;;
12784;SDS011;6456;42.680;23.260;2022-08-21T03:40:04;9.30;;;6.70;;
12784;SDS011;6456;42.680;23.260;2022-08-21T03:42:33;7.53;;;6.17;;
12784;SDS011;6456;42.680;23.260;2022-08-21T03:45:00;8.63;;;6.60;;
12784;SDS011;6456;42.680;23.260;2022-08-21T03:47:29;11.10;;;7.97;;
12784;SDS011;6456;42.680;23.260;2022-08-21T03:49:56;10.90;;;7.13;;
12784;SDS011;6456;42.680;23.260;2022-08-21T03:52:22;10.87;;;6.93;;
12784;SDS011;6456;42.680;23.260;2022-08-21T03:54:51;11.03;;;9.83;;
12784;SDS011;6456;42.680;23.260;2022-08-21T03:57:18;14.77;;;10.17;;
12784;SDS011;6456;42.680;23.260;2022-08-21T03:59:45;13.63;;;10.63;;
12784;SDS011;6456;42.680;23.260;2022-08-21T04:02:20;15.77;;;10.73;;
12784;SDS011;6456;42.680;23.260;2022-08-21T04:04:48;18.43;;;11.27;;
12784;SDS011;6456;42.680;23.260;2022-08-21T04:07:15;15.67;;;12.20;;
12784;SDS011;6456;42.680;23.260;2022-08-21T04:09:42;18.33;;;13.77;;
12784;SDS011;6456;42.680;23.260;2022-08-21T04:12:11;18.30;;;14.27;;
12784;SDS011;6456;42.680;23.260;2022-08-21T04:14:37;20.30;;;15.80;;
12784;SDS011;6456;42.680;23.260;2022-08-21T04:17:04;20.23;;;16.80;;
12784;SDS011;6456;42.680;23.260;2022-08-21T04:19:32;23.93;;;18.13;;
12784;SDS011;6456;42.680;23.260;2022-08-21T04:21:59;21.40;;;17.10;;
12784;SDS011;6456;42.680;23.260;2022-08-21T04:24:26;21.90;;;16.07;;
12784;SDS011;6456;42.680;23.260;2022-08-21T04:26:53;20.17;;;15.60;;
12784;SDS011;6456;42.680;23.260;2022-08-21T04:29:21;18.60;;;14.70;;
12784;SDS011;6456;42.680;23.260;2022-08-21T04:31:48;20.23;;;15.60;;
12784;SDS011;6456;42.680;23.260;2022-08-21T04:34:19;17.20;;;14.27;;
12784;SDS011;6456;42.680;23.260;2022-08-21T04:36:46;16.90;;;13.20;;
12784;SDS011;6456;42.680;23.260;2022-08-21T04:39:13;16.67;;;13.67;;
12784;SDS011;6456;42.680;23.260;2022-08-21T04:41:40;16.30;;;13.50;;
12784;SDS011;6456;42.680;23.260;2022-08-21T04:44:07;17.20;;;13.87;;
12784;SDS011;6456;42.680;23.260;2022-08-21T04:46:36;14.97;;;12.40;;
12784;SDS011;6456;42.680;23.260;2022-08-21T04:49:03;13.67;;;11.77;;
12784;SDS011;6456;42.680;23.260;2022-08-21T04:51:31;15.73;;;12.00;;
12784;SDS011;6456;42.680;23.260;2022-08-21T04:54:01;13.93;;;11.57;;
12784;SDS011;6456;42.680;23.260;2022-08-21T04:56:34;14.60;;;10.90;;
12784;SDS011;6456;42.680;23.260;2022-08-21T04:59:04;11.23;;;8.60;;
12784;SDS011;6456;42.680;23.260;2022-08-21T05:01:39;11.10;;;8.47;;
12784;SDS011;6456;42.680;23.260;2022-08-21T05:04:08;10.60;;;7.60;;
12784;SDS011;6456;42.680;23.260;2022-08-21T05:06:38;10.50;;;6.97;;
12784;SDS011;6456;42.680;23.260;2022-08-21T05:09:08;7.70;;;6.40;;
12784;SDS011;6456;42.680;23.260;2022-08-21T05:11:35;11.63;;;6.97;;
12784;SDS011;6456;42.680;23.260;2022-08-21T05:14:03;12.50;;;6.87;;
12784;SDS011;6456;42.680;23.260;2022-08-21T05:16:30;10.57;;;6.93;;
12784;SDS011;6456;42.680;23.260;2022-08-21T05:18:58;8.60;;;7.10;;
12784;SDS011;6456;42.680;23.260;2022-08-21T05:21:25;10.60;;;7.00;;
12784;SDS011;6456;42.680;23.260;2022-08-21T05:23:52;10.13;;;6.73;;
12784;SDS011;6456;42.680;23.260;2022-08-21T05:26:19;9.63;;;7.00;;
12784;SDS011;6456;42.680;23.260;2022-08-21T05:28:46;9.23;;;6.47;;
12784;SDS011;6456;42.680;23.260;2022-08-21T05:31:14;7.57;;;6.60;;
12784;SDS011;6456;42.680;23.260;2022-08-21T05:33:41;9.10;;;6.40;;
12784;SDS011;6456;42.680;23.260;2022-08-21T05:36:09;9.77;;;6.07;;
12784;SDS011;6456;42.680;23.260;2022-08-21T05:38:36;8.13;;;6.00;;
12784;SDS011;6456;42.680;23.260;2022-08-21T05:41:03;8.47;;;6.27;;
12784;SDS011;6456;42.680;23.260;2022-08-21T05:43:30;7.50;;;5.37;;
12784;SDS011;6456;42.680;23.260;2022-08-21T05:46:01;10.17;;;5.97;;
12784;SDS011;6456;42.680;23.260;2022-08-21T05:48:29;7.33;;;5.87;;
12784;SDS011;6456;42.680;23.260;2022-08-21T05:50:57;8.20;;;5.90;;
12784;SDS011;6456;42.680;23.260;2022-08-21T05:53:25;9.20;;;6.23;;
12784;SDS011;6456;42.680;23.260;2022-08-21T05:55:52;10.80;;;6.07;;
12784;SDS011;6456;42.680;23.260;2022-08-21T05:58:20;8.13;;;5.93;;
12784;SDS011;6456;42.680;23.260;2022-08-21T06:00:48;6.60;;;5.90;;
12784;SDS011;6456;42.680;23.260;2022-08-21T06:03:16;10.23;;;6.77;;
12784;SDS011;6456;42.680;23.260;2022-08-21T06:05:48;9.00;;;7.20;;
12784;SDS011;6456;42.680;23.260;2022-08-21T06:08:16;9.50;;;7.00;;
12784;SDS011;6456;42.680;23.260;2022-08-21T06:10:45;8.67;;;6.47;;
12784;SDS011;6456;42.680;23.260;2022-08-21T06:13:14;9.87;;;6.43;;
12784;SDS011;6456;42.680;23.260;2022-08-21T06:15:42;13.80;;;9.50;;
12784;SDS011;6456;42.680;23.260;2022-08-21T06:18:09;9.80;;;7.37;;
12784;SDS011;6456;42.680;23.260;2022-08-21T06:20:36;13.43;;;10.33;;
12784;SDS011;6456;42.680;23.260;2022-08-21T06:23:04;13.50;;;11.00;;
12784;SDS011;6456;42.680;23.260;2022-08-21T06:25:31;12.13;;;9.43;;
12784;SDS011;6456;42.680;23.260;2022-08-21T06:28:02;13.67;;;10.70;;
12784;SDS011;6456;42.680;23.260;2022-08-21T06:30:31;14.67;;;10.97;;
12784;SDS011;6456;42.680;23.260;2022-08-21T06:32:58;14.97;;;10.27;;
12784;SDS011;6456;42.680;23.260;2022-08-21T06:35:26;15.00;;;11.73;;
12784;SDS011;6456;42.680;23.260;2022-08-21T06:37:54;20.23;;;13.67;;
12784;SDS011;6456;42.680;23.260;2022-08-21T06:40:21;16.60;;;12.03;;
12784;SDS011;6456;42.680;23.260;2022-08-21T06:42:48;11.70;;;10.13;;
12784;SDS011;6456;42.680;23.260;2022-08-21T06:45:16;9.97;;;8.67;;
12784;SDS011;6456;42.680;23.260;2022-08-21T06:47:43;12.67;;;8.97;;
12784;SDS011;6456;42.680;23.260;2022-08-21T06:50:10;12.40;;;9.03;;
12784;SDS011;6456;42.680;23.260;2022-08-21T06:52:38;13.87;;;9.43;;
12784;SDS011;6456;42.680;23.260;2022-08-21T06:55:05;13.63;;;10.70;;
12784;SDS011;6456;42.680;23.260;2022-08-21T06:57:34;13.23;;;11.03;;
12784;SDS011;6456;42.680;23.260;2022-08-21T07:00:02;12.63;;;11.17;;
12784;SDS011;6456;42.680;23.260;2022-08-21T07:02:31;16.47;;;11.67;;
12784;SDS011;6456;42.680;23.260;2022-08-21T07:04:59;17.17;;;11.43;;
12784;SDS011;6456;42.680;23.260;2022-08-21T07:07:26;15.97;;;12.23;;
12784;SDS011;6456;42.680;23.260;2022-08-21T07:09:53;12.33;;;10.33;;
12784;SDS011;6456;42.680;23.260;2022-08-21T07:12:20;12.77;;;9.07;;
12784;SDS011;6456;42.680;23.260;2022-08-21T07:14:47;13.67;;;9.87;;
12784;SDS011;6456;42.680;23.260;2022-08-21T07:17:14;13.53;;;8.43;;
12784;SDS011;6456;42.680;23.260;2022-08-21T07:19:42;12.63;;;10.73;;
12784;SDS011;6456;42.680;23.260;2022-08-21T07:22:09;14.77;;;10.93;;
12784;SDS011;6456;42.680;23.260;2022-08-21T07:24:46;13.87;;;9.93;;
12784;SDS011;6456;42.680;23.260;2022-08-21T07:27:13;12.43;;;9.77;;
12784;SDS011;6456;42.680;23.260;2022-08-21T07:29:40;15.00;;;11.73;;
12784;SDS011;6456;42.680;23.260;2022-08-21T07:32:07;11.70;;;10.27;;
12784;SDS011;6456;42.680;23.260;2022-08-21T07:34:34;12.03;;;10.30;;
12784;SDS011;6456;42.680;23.260;2022-08-21T07:37:02;14.10;;;10.57;;
12784;SDS011;6456;42.680;23.260;2022-08-21T07:39:29;10.43;;;9.33;;
12784;SDS011;6456;42.680;23.260;2022-08-21T07:41:56;13.57;;;11.07;;
12784;SDS011;6456;42.680;23.260;2022-08-21T07:44:23;14.90;;;10.53;;
12784;SDS011;6456;42.680;23.260;2022-08-21T07:46:50;15.27;;;10.77;;
12784;SDS011;6456;42.680;23.260;2022-08-21T07:49:17;10.80;;;8.93;;
12784;SDS011;6456;42.680;23.260;2022-08-21T07:51:44;11.30;;;9.33;;
12784;SDS011;6456;42.680;23.260;2022-08-21T07:54:13;12.77;;;9.10;;
12784;SDS011;6456;42.680;23.260;2022-08-21T07:56:39;16.83;;;10.33;;
12784;SDS011;6456;42.680;23.260;2022-08-21T07:59:07;10.60;;;8.77;;
12784;SDS011;6456;42.680;23.260;2022-08-21T08:01:34;12.97;;;10.03;;
12784;SDS011;6456;42.680;23.260;2022-08-21T08:04:01;13.10;;;9.17;;
12784;SDS011;6456;42.680;23.260;2022-08-21T08:06:29;12.77;;;9.15;;
12784;SDS011;6456;42.680;23.260;2022-08-21T08:08:56;10.35;;;8.45;;
12784;SDS011;6456;42.680;23.260;2022-08-21T08:11:24;10.50;;;8.13;;
12784;SDS011;6456;42.680;23.260;2022-08-21T08:13:51;13.43;;;8.40;;
12784;SDS011;6456;42.680;23.260;2022-08-21T08:16:18;11.55;;;9.00;;
12784;SDS011;6456;42.680;23.260;2022-08-21T08:18:46;11.07;;;7.65;;
12784;SDS011;6456;42.680;23.260;2022-08-21T08:21:13;9.98;;;7.90;;
12784;SDS011;6456;42.680;23.260;2022-08-21T08:23:41;9.02;;;7.75;;
12784;SDS011;6456;42.680;23.260;2022-08-21T08:26:10;10.98;;;7.53;;
12784;SDS011;6456;42.680;23.260;2022-08-21T08:28:38;10.52;;;7.65;;
12784;SDS011;6456;42.680;23.260;2022-08-21T08:31:05;10.55;;;7.85;;
12784;SDS011;6456;42.680;23.260;2022-08-21T08:33:32;11.93;;;7.95;;
12784;SDS011;6456;42.680;23.260;2022-08-21T08:36:01;10.18;;;7.93;;
12784;SDS011;6456;42.680;23.260;2022-08-21T08:38:28;12.75;;;8.90;;
12784;SDS011;6456;42.680;23.260;2022-08-21T08:40:57;10.20;;;6.63;;
12784;SDS011;6456;42.680;23.260;2022-08-21T08:43:28;10.43;;;7.45;;
12784;SDS011;6456;42.680;23.260;2022-08-21T08:46:01;10.10;;;9.05;;
12784;SDS011;6456;42.680;23.260;2022-08-21T08:48:34;11.27;;;7.35;;
12784;SDS011;6456;42.680;23.260;2022-08-21T08:51:08;8.55;;;6.97;;
12784;SDS011;6456;42.680;23.260;2022-08-21T08:53:45;7.22;;;6.40;;
12784;SDS011;6456;42.680;23.260;2022-08-21T08:56:18;10.95;;;7.20;;
12784;SDS011;6456;42.680;23.260;2022-08-21T08:58:49;11.63;;;6.75;;
12784;SDS011;6456;42.680;23.260;2022-08-21T09:01:20;10.07;;;6.35;;
12784;SDS011;6456;42.680;23.260;2022-08-21T09:03:47;11.25;;;7.60;;
12784;SDS011;6456;42.680;23.260;2022-08-21T09:06:23;11.60;;;7.10;;
12784;SDS011;6456;42.680;23.260;2022-08-21T09:09:02;9.02;;;6.78;;
12784;SDS011;6456;42.680;23.260;2022-08-21T09:11:41;10.60;;;6.38;;
12784;SDS011;6456;42.680;23.260;2022-08-21T09:14:23;11.15;;;7.28;;
12784;SDS011;6456;42.680;23.260;2022-08-21T09:17:04;8.90;;;6.70;;
12784;SDS011;6456;42.680;23.260;2022-08-21T09:19:44;6.97;;;5.63;;
12784;SDS011;6456;42.680;23.260;2022-08-21T09:22:27;9.00;;;5.50;;
12784;SDS011;6456;42.680;23.260;2022-08-21T09:25:04;10.50;;;6.40;;
12784;SDS011;6456;42.680;23.260;2022-08-21T09:27:37;8.95;;;5.50;;
12784;SDS011;6456;42.680;23.260;2022-08-21T09:30:05;9.43;;;5.07;;
12784;SDS011;6456;42.680;23.260;2022-08-21T09:32:35;9.60;;;5.53;;
12784;SDS011;6456;42.680;23.260;2022-08-21T09:35:05;8.27;;;4.88;;
12784;SDS011;6456;42.680;23.260;2022-08-21T09:37:34;8.95;;;5.35;;
12784;SDS011;6456;42.680;23.260;2022-08-21T09:40:26;9.00;;;5.15;;
12784;SDS011;6456;42.680;23.260;2022-08-21T09:42:57;6.88;;;5.07;;
12784;SDS011;6456;42.680;23.260;2022-08-21T09:45:26;7.10;;;5.65;;
12784;SDS011;6456;42.680;23.260;2022-08-21T09:47:55;6.43;;;5.32;;
12784;SDS011;6456;42.680;23.260;2022-08-21T09:50:24;7.07;;;5.28;;
12784;SDS011;6456;42.680;23.260;2022-08-21T09:52:54;8.18;;;5.35;;
12784;SDS011;6456;42.680;23.260;2022-08-21T09:55:28;8.63;;;5.90;;
12784;SDS011;6456;42.680;23.260;2022-08-21T09:58:16;9.00;;;5.82;;
12784;SDS011;6456;42.680;23.260;2022-08-21T10:00:45;7.95;;;5.60;;
12784;SDS011;6456;42.680;23.260;2022-08-21T10:03:24;7.88;;;5.40;;
12784;SDS011;6456;42.680;23.260;2022-08-21T10:05:53;9.70;;;5.13;;
12784;SDS011;6456;42.680;23.260;2022-08-21T10:08:24;10.00;;;5.80;;
12784;SDS011;6456;42.680;23.260;2022-08-21T10:10:54;10.32;;;5.53;;
12784;SDS011;6456;42.680;23.260;2022-08-21T10:13:30;8.63;;;4.78;;
12784;SDS011;6456;42.680;23.260;2022-08-21T10:16:10;8.68;;;5.22;;
12784;SDS011;6456;42.680;23.260;2022-08-21T10:18:49;9.98;;;4.95;;
12784;SDS011;6456;42.680;23.260;2022-08-21T10:21:28;24.30;;;6.82;;
12784;SDS011;6456;42.680;23.260;2022-08-21T10:24:01;17.90;;;6.30;;
12784;SDS011;6456;42.680;23.260;2022-08-21T10:26:38;23.58;;;7.70;;
12784;SDS011;6456;42.680;23.260;2022-08-21T10:29:14;15.63;;;6.00;;
12784;SDS011;6456;42.680;23.260;2022-08-21T10:31:52;8.90;;;5.20;;
12784;SDS011;6456;42.680;23.260;2022-08-21T10:34:33;5.63;;;4.32;;
12784;SDS011;6456;42.680;23.260;2022-08-21T10:37:18;9.02;;;5.20;;
12784;SDS011;6456;42.680;23.260;2022-08-21T10:39:55;5.63;;;4.72;;
12784;SDS011;6456;42.680;23.260;2022-08-21T10:42:35;7.28;;;4.70;;
12784;SDS011;6456;42.680;23.260;2022-08-21T10:45:09;8.82;;;4.88;;
12784;SDS011;6456;42.680;23.260;2022-08-21T10:47:43;6.55;;;4.32;;
12784;SDS011;6456;42.680;23.260;2022-08-21T10:50:19;8.95;;;4.38;;
12784;SDS011;6456;42.680;23.260;2022-08-21T10:52:58;6.20;;;4.60;;
12784;SDS011;6456;42.680;23.260;2022-08-21T10:55:44;8.43;;;5.15;;
12784;SDS011;6456;42.680;23.260;2022-08-21T10:58:18;7.22;;;4.68;;
12784;SDS011;6456;42.680;23.260;2022-08-21T11:00:53;8.02;;;5.22;;
12784;SDS011;6456;42.680;23.260;2022-08-21T11:03:24;8.82;;;4.22;;
12784;SDS011;6456;42.680;23.260;2022-08-21T11:06:00;5.82;;;4.72;;
12784;SDS011;6456;42.680;23.260;2022-08-21T11:08:33;5.75;;;4.57;;
12784;SDS011;6456;42.680;23.260;2022-08-21T11:11:05;7.95;;;4.88;;
12784;SDS011;6456;42.680;23.260;2022-08-21T11:13:37;7.47;;;4.82;;
12784;SDS011;6456;42.680;23.260;2022-08-21T11:16:10;8.88;;;4.88;;
12784;SDS011;6456;42.680;23.260;2022-08-21T11:18:43;8.20;;;5.00;;
12784;SDS011;6456;42.680;23.260;2022-08-21T11:21:19;6.65;;;5.20;;
12784;SDS011;6456;42.680;23.260;2022-08-21T11:23:58;7.40;;;5.10;;
12784;SDS011;6456;42.680;23.260;2022-08-21T11:26:41;8.50;;;5.40;;
12784;SDS011;6456;42.680;23.260;2022-08-21T11:29:13;9.05;;;5.32;;
12784;SDS011;6456;42.680;23.260;2022-08-21T11:31:50;6.88;;;5.15;;
12784;SDS011;6456;42.680;23.260;2022-08-21T11:34:28;7.85;;;5.28;;
12784;SDS011;6456;42.680;23.260;2022-08-21T11:37:09;8.35;;;5.32;;
12784;SDS011;6456;42.680;23.260;2022-08-21T11:39:46;6.07;;;5.38;;
12784;SDS011;6456;42.680;23.260;2022-08-21T11:42:23;10.00;;;5.03;;
12784;SDS011;6456;42.680;23.260;2022-08-21T11:45:02;7.55;;;5.47;;
12784;SDS011;6456;42.680;23.260;2022-08-21T11:47:42;7.80;;;5.03;;
12784;SDS011;6456;42.680;23.260;2022-08-21T11:50:21;7.70;;;5.20;;
12784;SDS011;6456;42.680;23.260;2022-08-21T11:52:55;6.68;;;4.85;;
12784;SDS011;6456;42.680;23.260;2022-08-21T11:55:28;8.35;;;5.10;;
12784;SDS011;6456;42.680;23.260;2022-08-21T11:57:59;5.57;;;4.63;;
12784;SDS011;6456;42.680;23.260;2022-08-21T12:00:29;6.30;;;5.00;;
12784;SDS011;6456;42.680;23.260;2022-08-21T12:03:06;6.03;;;4.50;;
12784;SDS011;6456;42.680;23.260;2022-08-21T12:05:37;6.55;;;4.10;;
12784;SDS011;6456;42.680;23.260;2022-08-21T12:08:10;7.90;;;4.43;;
12784;SDS011;6456;42.680;23.260;2022-08-21T12:10:40;9.85;;;4.38;;
12784;SDS011;6456;42.680;23.260;2022-08-21T12:13:23;9.65;;;4.97;;
12784;SDS011;6456;42.680;23.260;2022-08-21T12:15:51;6.55;;;5.00;;
12784;SDS011;6456;42.680;23.260;2022-08-21T12:18:20;6.20;;;4.00;;
12784;SDS011;6456;42.680;23.260;2022-08-21T12:20:58;6.47;;;4.47;;
12784;SDS011;6456;42.680;23.260;2022-08-21T12:23:30;4.90;;;4.40;;
12784;SDS011;6456;42.680;23.260;2022-08-21T12:26:18;4.63;;;3.88;;
12784;SDS011;6456;42.680;23.260;2022-08-21T12:28:50;9.57;;;4.43;;
12784;SDS011;6456;42.680;23.260;2022-08-21T12:31:18;8.13;;;4.90;;
12784;SDS011;6456;42.680;23.260;2022-08-21T12:33:50;5.22;;;4.60;;
12784;SDS011;6456;42.680;23.260;2022-08-21T12:36:21;8.27;;;4.65;;
12784;SDS011;6456;42.680;23.260;2022-08-21T12:38:56;5.47;;;4.35;;
12784;SDS011;6456;42.680;23.260;2022-08-21T12:41:27;11.70;;;4.35;;
12784;SDS011;6456;42.680;23.260;2022-08-21T12:43:57;6.50;;;4.32;;
12784;SDS011;6456;42.680;23.260;2022-08-21T12:46:29;6.45;;;4.20;;
12784;SDS011;6456;42.680;23.260;2022-08-21T12:49:05;8.02;;;4.10;;
12784;SDS011;6456;42.680;23.260;2022-08-21T12:51:43;5.18;;;4.45;;
12784;SDS011;6456;42.680;23.260;2022-08-21T12:54:23;7.30;;;4.32;;
12784;SDS011;6456;42.680;23.260;2022-08-21T12:56:57;5.55;;;3.90;;
12784;SDS011;6456;42.680;23.260;2022-08-21T12:59:26;6.38;;;4.28;;
12784;SDS011;6456;42.680;23.260;2022-08-21T13:01:54;6.32;;;4.28;;
12784;SDS011;6456;42.680;23.260;2022-08-21T13:04:25;5.85;;;4.10;;
12784;SDS011;6456;42.680;23.260;2022-08-21T13:06:59;4.55;;;3.65;;
12784;SDS011;6456;42.680;23.260;2022-08-21T13:09:29;5.20;;;3.92;;
12784;SDS011;6456;42.680;23.260;2022-08-21T13:11:57;4.47;;;3.80;;
12784;SDS011;6456;42.680;23.260;2022-08-21T13:14:27;6.85;;;4.00;;
12784;SDS011;6456;42.680;23.260;2022-08-21T13:16:57;4.45;;;4.05;;
12784;SDS011;6456;42.680;23.260;2022-08-21T13:19:26;7.03;;;4.18;;
12784;SDS011;6456;42.680;23.260;2022-08-21T13:21:54;6.47;;;4.25;;
12784;SDS011;6456;42.680;23.260;2022-08-21T13:24:22;5.25;;;4.25;;
12784;SDS011;6456;42.680;23.260;2022-08-21T13:26:52;9.70;;;4.35;;
12784;SDS011;6456;42.680;23.260;2022-08-21T13:29:20;4.30;;;3.88;;
12784;SDS011;6456;42.680;23.260;2022-08-21T13:31:49;5.22;;;4.10;;
12784;SDS011;6456;42.680;23.260;2022-08-21T13:34:20;6.95;;;4.28;;
12784;SDS011;6456;42.680;23.260;2022-08-21T13:36:51;5.22;;;4.00;;
12784;SDS011;6456;42.680;23.260;2022-08-21T13:39:20;5.70;;;3.92;;
12784;SDS011;6456;42.680;23.260;2022-08-21T13:41:48;8.10;;;4.13;;
12784;SDS011;6456;42.680;23.260;2022-08-21T13:44:20;6.32;;;3.65;;
12784;SDS011;6456;42.680;23.260;2022-08-21T13:46:51;6.70;;;4.30;;
12784;SDS011;6456;42.680;23.260;2022-08-21T13:49:21;8.77;;;4.53;;
12784;SDS011;6456;42.680;23.260;2022-08-21T13:51:52;7.07;;;4.25;;
12784;SDS011;6456;42.680;23.260;2022-08-21T13:54:21;4.53;;;4.13;;
12784;SDS011;6456;42.680;23.260;2022-08-21T13:56:52;11.27;;;4.20;;
12784;SDS011;6456;42.680;23.260;2022-08-21T13:59:25;4.47;;;3.90;;
12784;SDS011;6456;42.680;23.260;2022-08-21T14:01:54;6.95;;;4.00;;
12784;SDS011;6456;42.680;23.260;2022-08-21T14:04:26;5.03;;;3.78;;
12784;SDS011;6456;42.680;23.260;2022-08-21T14:06:59;4.45;;;4.05;;
12784;SDS011;6456;42.680;23.260;2022-08-21T14:09:28;6.20;;;4.00;;
12784;SDS011;6456;42.680;23.260;2022-08-21T14:11:59;5.43;;;4.28;;
12784;SDS011;6456;42.680;23.260;2022-08-21T14:14:31;6.40;;;4.38;;
12784;SDS011;6456;42.680;23.260;2022-08-21T14:17:02;5.80;;;4.15;;
12784;SDS011;6456;42.680;23.260;2022-08-21T14:19:36;8.02;;;4.40;;
12784;SDS011;6456;42.680;23.260;2022-08-21T14:25:04;4.85;;;3.85;;
12784;SDS011;6456;42.680;23.260;2022-08-21T14:27:33;6.30;;;3.80;;
12784;SDS011;6456;42.680;23.260;2022-08-21T14:30:09;5.97;;;4.05;;
12784;SDS011;6456;42.680;23.260;2022-08-21T14:32:40;6.78;;;4.20;;
12784;SDS011;6456;42.680;23.260;2022-08-21T14:35:07;7.47;;;4.32;;
12784;SDS011;6456;42.680;23.260;2022-08-21T14:37:35;4.30;;;3.92;;
12784;SDS011;6456;42.680;23.260;2022-08-21T14:40:03;7.20;;;4.70;;
12784;SDS011;6456;42.680;23.260;2022-08-21T14:42:30;8.82;;;5.22;;
12784;SDS011;6456;42.680;23.260;2022-08-21T14:45:00;6.30;;;4.35;;
12784;SDS011;6456;42.680;23.260;2022-08-21T14:47:32;8.98;;;6.50;;
12784;SDS011;6456;42.680;23.260;2022-08-21T14:49:59;10.02;;;5.93;;
12784;SDS011;6456;42.680;23.260;2022-08-21T14:52:26;10.05;;;7.53;;
12784;SDS011;6456;42.680;23.260;2022-08-21T14:54:53;9.63;;;8.00;;
12784;SDS011;6456;42.680;23.260;2022-08-21T14:57:20;9.63;;;6.80;;
12784;SDS011;6456;42.680;23.260;2022-08-21T14:59:47;7.00;;;5.63;;
12784;SDS011;6456;42.680;23.260;2022-08-21T15:02:14;14.55;;;6.38;;
12784;SDS011;6456;42.680;23.260;2022-08-21T15:04:42;8.55;;;5.38;;
12784;SDS011;6456;42.680;23.260;2022-08-21T15:07:09;8.25;;;5.13;;